Time;durP1;ratioP1;P1;durP2;ratioP2;P2;SDS_P1;SDS_P2;PMS_P1;PMS_P2;Temp;Humidity;BMP_temperature;BMP_pressure;BME280_temperature;BME280_humidity;BME280_pressure;Samples;Min_cycle;Max_cycle;Signal;HPM_P1;HPM_P2
2023/10/27 00:00:27;;;;;;;;;1.00;1.00;;;;;21.56;56.95;98769.50;110096;1265;18413;-34
2023/10/27 00:03:15;;;;;;;;;1.33;1.00;;;;;21.54;56.90;98771.77;110147;1265;21724;-34
2023/10/27 00:05:42;;;;;;;;;1.00;1.00;;;;;21.54;56.79;98772.16;110156;1250;21268;-34
2023/10/27 00:08:10;;;;;;;;;1.00;1.00;;;;;21.54;56.55;98773.06;110132;1265;18383;-34
2023/10/27 00:10:37;;;;;;;;;1.00;1.00;;;;;21.54;56.73;98766.86;110063;1251;20096;-34
2023/10/27 00:13:05;;;;;;;;;1.00;1.00;;;;;21.54;56.72;98770.27;110093;1250;20791;-33
2023/10/27 00:15:32;;;;;;;;;1.00;1.00;;;;;21.54;56.39;98769.82;110016;1259;22742;-33
2023/10/27 00:18:00;;;;;;;;;1.00;1.00;;;;;21.55;56.39;98774.75;110031;1251;19967;-33
2023/10/27 00:20:27;;;;;;;;;1.00;1.00;;;;;21.55;56.57;98773.23;109983;1250;20658;-34
2023/10/27 00:22:55;;;;;;;;;1.00;1.00;;;;;21.57;56.26;98776.61;110062;1253;19621;-34
2023/10/27 00:25:22;;;;;;;;;1.00;1.00;;;;;21.54;56.58;98776.33;110157;1250;18956;-33
2023/10/27 00:27:50;;;;;;;;;1.00;1.00;;;;;21.54;56.47;98780.33;110145;1251;20950;-34
2023/10/27 00:30:18;;;;;;;;;1.00;1.00;;;;;21.56;56.39;98783.18;110123;1250;22915;-34
2023/10/27 00:32:46;;;;;;;;;1.00;1.00;;;;;21.56;56.22;98782.28;110167;1257;19882;-33
2023/10/27 00:35:13;;;;;;;;;1.00;1.00;;;;;21.55;56.24;98783.70;110176;1265;19470;-33
2023/10/27 00:37:41;;;;;;;;;1.00;1.00;;;;;21.53;56.26;98782.93;110168;1266;22136;-33
2023/10/27 00:40:08;;;;;;;;;1.00;1.00;;;;;21.55;56.15;98784.81;110200;1249;20925;-33
2023/10/27 00:42:36;;;;;;;;;1.00;1.00;;;;;21.54;56.40;98783.35;110156;1251;20829;-33
2023/10/27 00:45:03;;;;;;;;;1.00;1.00;;;;;21.53;56.43;98778.19;110162;1251;19615;-34
2023/10/27 00:47:31;;;;;;;;;1.00;1.00;;;;;21.54;56.23;98774.95;110154;1265;19860;-33
2023/10/27 00:49:58;;;;;;;;;1.00;1.00;;;;;21.54;56.24;98770.75;110159;1253;20773;-33
2023/10/27 00:52:26;;;;;;;;;1.00;1.00;;;;;21.54;56.34;98764.82;110154;1250;20875;-33
2023/10/27 00:54:53;;;;;;;;;1.00;1.00;;;;;21.54;56.21;98765.65;110122;1265;18770;-33
2023/10/27 00:57:20;;;;;;;;;1.00;1.00;;;;;21.53;56.28;98764.05;110147;1259;21029;-33
2023/10/27 00:59:50;;;;;;;;;1.00;1.00;;;;;21.53;56.34;98768.77;110150;1259;19425;-33
2023/10/27 01:02:18;;;;;;;;;1.00;1.00;;;;;21.52;56.25;98765.30;110160;1265;18593;-33
2023/10/27 01:04:46;;;;;;;;;1.00;1.00;;;;;21.51;56.22;98767.90;110152;1251;20813;-33
2023/10/27 01:07:14;;;;;;;;;1.00;1.00;;;;;21.52;56.35;98767.23;110208;1249;22134;-33
2023/10/27 01:09:41;;;;;;;;;1.00;1.00;;;;;21.53;56.29;98772.04;110134;1249;20062;-33
2023/10/27 01:12:08;;;;;;;;;1.00;1.00;;;;;21.52;56.03;98773.38;110089;1266;22165;-33
2023/10/27 01:14:36;;;;;;;;;1.00;1.00;;;;;21.54;56.39;98775.02;110151;1265;18312;-33
2023/10/27 01:17:03;;;;;;;;;2.00;1.00;;;;;21.53;56.17;98777.13;110119;1265;21471;-34
2023/10/27 01:19:31;;;;;;;;;1.00;1.00;;;;;21.50;56.05;98777.58;110096;1251;21018;-36
2023/10/27 01:21:58;;;;;;;;;1.00;1.00;;;;;21.50;56.18;98779.12;110061;1265;19551;-34
2023/10/27 01:24:25;;;;;;;;;1.00;1.00;;;;;21.51;56.09;98776.20;110204;1250;20063;-33
2023/10/27 01:26:53;;;;;;;;;1.00;1.00;;;;;21.52;56.18;98778.52;110144;1251;20845;-33
2023/10/27 01:29:23;;;;;;;;;1.00;1.00;;;;;21.52;56.03;98778.02;110163;1251;19664;-33
2023/10/27 01:31:50;;;;;;;;;1.00;1.00;;;;;21.52;56.12;98776.16;110141;1265;21303;-34
2023/10/27 01:34:18;;;;;;;;;1.00;1.00;;;;;21.52;56.13;98778.89;110148;1265;21829;-33
2023/10/27 01:36:45;;;;;;;;;1.00;1.00;;;;;21.51;56.13;98775.91;110161;1266;18554;-33
2023/10/27 01:39:13;;;;;;;;;1.00;1.00;;;;;21.51;55.92;98779.56;110140;1265;18629;-33
2023/10/27 01:41:41;;;;;;;;;1.00;1.00;;;;;21.50;56.16;98778.45;110170;1259;19526;-33
2023/10/27 01:44:08;;;;;;;;;1.00;1.00;;;;;21.53;56.11;98775.53;110177;1251;19604;-34
2023/10/27 01:46:36;;;;;;;;;1.00;1.00;;;;;21.51;55.88;98776.59;110135;1251;22842;-34
2023/10/27 01:49:03;;;;;;;;;1.00;1.00;;;;;21.50;56.12;98774.38;110128;1265;19384;-34
2023/10/27 01:51:31;;;;;;;;;1.00;1.00;;;;;21.51;55.82;98772.80;110067;1250;19621;-34
2023/10/27 01:53:58;;;;;;;;;1.00;1.00;;;;;21.51;55.79;98772.10;110121;1265;19998;-33
2023/10/27 01:56:25;;;;;;;;;1.00;1.00;;;;;21.53;55.91;98773.31;110149;1253;19613;-34
2023/10/27 01:58:53;;;;;;;;;1.00;1.00;;;;;21.51;55.84;98767.03;110175;1265;18227;-33
2023/10/27 02:01:21;;;;;;;;;1.00;1.00;;;;;21.50;55.85;98764.64;110163;1251;19980;-33
2023/10/27 02:03:48;;;;;;;;;1.00;1.00;;;;;21.49;55.99;98764.54;110157;1253;20776;-33
2023/10/27 02:06:16;;;;;;;;;1.00;1.00;;;;;21.48;56.15;98764.48;110134;1250;19571;-33
2023/10/27 02:08:43;;;;;;;;;1.00;1.00;;;;;21.50;55.84;98765.18;110150;1249;23016;-33
2023/10/27 02:11:10;;;;;;;;;1.00;1.00;;;;;21.49;55.85;98767.39;110143;1259;20832;-33
2023/10/27 02:13:38;;;;;;;;;1.00;1.00;;;;;21.49;55.98;98767.33;110154;1265;22333;-33
2023/10/27 02:16:05;;;;;;;;;1.00;1.00;;;;;21.50;55.96;98766.65;110159;1250;19996;-33
2023/10/27 02:18:33;;;;;;;;;1.00;1.00;;;;;21.49;55.78;98770.18;110162;1251;20869;-33
2023/10/27 02:21:00;;;;;;;;;1.00;1.00;;;;;21.49;55.67;98770.69;110160;1250;19572;-33
2023/10/27 02:23:27;;;;;;;;;2.00;1.00;;;;;21.50;55.70;98770.86;110173;1250;21624;-33
2023/10/27 02:25:55;;;;;;;;;1.00;1.00;;;;;21.52;55.60;98765.50;110152;1265;20780;-33
2023/10/27 02:28:23;;;;;;;;;1.00;1.00;;;;;21.50;55.72;98765.66;110173;1265;18374;-33
2023/10/27 02:30:50;;;;;;;;;1.00;1.00;;;;;21.49;55.85;98762.52;110175;1250;20932;-33
2023/10/27 02:33:17;;;;;;;;;1.00;1.00;;;;;21.50;55.81;98758.67;110134;1265;19344;-33
2023/10/27 02:35:45;;;;;;;;;1.00;1.00;;;;;21.50;55.85;98757.71;110136;1251;22171;-33
2023/10/27 02:38:12;;;;;;;;;1.00;1.00;;;;;21.48;55.73;98759.35;110145;1249;20009;-33
2023/10/27 02:40:40;;;;;;;;;1.00;1.00;;;;;21.48;55.72;98760.92;110173;1253;20747;-33
2023/10/27 02:43:07;;;;;;;;;1.00;1.00;;;;;21.51;55.62;98764.09;110149;1265;18422;-34
2023/10/27 02:45:34;;;;;;;;;1.00;1.00;;;;;21.51;55.55;98766.02;110143;1265;19939;-34
2023/10/27 02:48:02;;;;;;;;;1.00;1.00;;;;;21.53;55.45;98760.81;110078;1265;19939;-34
2023/10/27 02:50:31;;;;;;;;;1.00;1.00;;;;;21.51;55.48;98749.57;110038;1249;19571;-33
2023/10/27 02:52:58;;;;;;;;;1.00;1.00;;;;;21.50;55.71;98739.80;110176;1251;19995;-33
2023/10/27 02:55:26;;;;;;;;;1.00;1.00;;;;;21.50;55.63;98725.89;110152;1251;20924;-33
2023/10/27 02:57:53;;;;;;;;;1.00;1.00;;;;;21.50;55.52;98723.64;110142;1265;18386;-34
2023/10/27 03:00:21;;;;;;;;;1.00;1.00;;;;;21.49;55.71;98717.50;110143;1252;20081;-34
2023/10/27 03:02:48;;;;;;;;;2.00;1.00;;;;;21.49;55.53;98726.70;110149;1259;20944;-33
2023/10/27 03:05:16;;;;;;;;;1.00;1.00;;;;;21.47;55.71;98732.47;110180;1265;19777;-33
2023/10/27 03:07:43;;;;;;;;;1.00;1.00;;;;;21.46;55.86;98731.48;110154;1257;20110;-33
2023/10/27 03:10:11;;;;;;;;;1.00;1.00;;;;;21.49;55.47;98731.49;110182;1265;20701;-33
2023/10/27 03:12:38;;;;;;;;;1.00;1.00;;;;;21.46;55.83;98729.46;110129;1265;18319;-33
2023/10/27 03:15:05;;;;;;;;;1.00;1.00;;;;;21.47;55.62;98729.88;110150;1265;19872;-33
2023/10/27 03:17:33;;;;;;;;;1.00;1.00;;;;;21.47;55.59;98728.23;110150;1253;20836;-33
2023/10/27 03:20:01;;;;;;;;;1.00;1.00;;;;;21.49;55.49;98730.58;110179;1251;19673;-34
2023/10/27 03:22:29;;;;;;;;;1.00;1.00;;;;;21.49;55.67;98733.23;110198;1265;18823;-34
2023/10/27 03:24:56;;;;;;;;;1.00;1.00;;;;;21.49;55.48;98737.48;110181;1251;20849;-33
2023/10/27 03:27:24;;;;;;;;;1.00;1.00;;;;;21.48;55.72;98734.52;110118;1251;19618;-34
2023/10/27 03:29:52;;;;;;;;;1.00;1.00;;;;;21.47;55.54;98733.69;110043;1250;18663;-33
2023/10/27 03:32:19;;;;;;;;;1.00;1.00;;;;;21.48;55.43;98733.98;110127;1251;20760;-33
2023/10/27 03:34:47;;;;;;;;;1.00;1.00;;;;;21.48;55.56;98731.40;110145;1250;23320;-33
2023/10/27 03:37:14;;;;;;;;;1.00;1.00;;;;;21.49;55.34;98726.80;110201;1253;20004;-33
2023/10/27 03:39:42;;;;;;;;;1.33;1.33;;;;;21.47;55.40;98723.81;110147;1265;19809;-33
2023/10/27 03:42:10;;;;;;;;;1.00;1.00;;;;;21.46;55.52;98725.73;110073;1261;22380;-33
2023/10/27 03:44:38;;;;;;;;;1.00;1.00;;;;;21.46;55.56;98728.69;110079;1265;18616;-33
2023/10/27 03:47:06;;;;;;;;;2.00;2.00;;;;;21.46;55.39;98729.45;110147;1265;19644;-33
2023/10/27 03:49:33;;;;;;;;;2.00;2.00;;;;;21.49;55.51;98730.98;110072;1250;19526;-33
2023/10/27 03:52:01;;;;;;;;;1.00;1.00;;;;;21.47;55.52;98735.19;110089;1265;18688;-33
2023/10/27 03:54:28;;;;;;;;;2.00;2.00;;;;;21.49;55.22;98738.39;110143;1265;19548;-33
2023/10/27 03:56:56;;;;;;;;;2.00;2.00;;;;;21.48;55.27;98738.19;110115;1251;19589;-34
2023/10/27 03:59:24;;;;;;;;;1.00;1.00;;;;;21.47;55.33;98740.86;110140;1257;19912;-34
2023/10/27 04:01:51;;;;;;;;;2.00;2.00;;;;;21.47;55.33;98743.27;110163;1250;20673;-33
2023/10/27 04:04:18;;;;;;;;;2.00;2.00;;;;;21.48;55.32;98745.41;110162;1252;20915;-33
2023/10/27 04:06:46;;;;;;;;;2.00;2.00;;;;;21.47;55.33;98749.42;110147;1265;19976;-33
2023/10/27 04:09:13;;;;;;;;;2.00;2.00;;;;;21.48;55.36;98748.68;110156;1251;22275;-33
2023/10/27 04:11:41;;;;;;;;;2.00;2.00;;;;;21.48;55.35;98747.84;110166;1250;21635;-33
2023/10/27 04:14:09;;;;;;;;;1.00;1.00;;;;;21.50;55.43;98749.06;110134;1251;20045;-34
2023/10/27 04:16:37;;;;;;;;;3.00;3.00;;;;;21.48;55.32;98748.36;110132;1252;22012;-33
2023/10/27 04:19:04;;;;;;;;;2.00;2.00;;;;;21.48;55.16;98745.51;110164;1257;19594;-33
2023/10/27 04:21:32;;;;;;;;;2.00;2.00;;;;;21.49;55.16;98749.33;110141;1265;20026;-33
2023/10/27 04:23:59;;;;;;;;;2.00;2.00;;;;;21.48;55.17;98747.36;110048;1257;19374;-33
2023/10/27 04:26:27;;;;;;;;;3.00;3.00;;;;;21.49;55.23;98746.91;110153;1250;20951;-33
2023/10/27 04:28:54;;;;;;;;;2.00;2.00;;;;;21.48;55.15;98747.84;110157;1265;19854;-33
2023/10/27 04:31:22;;;;;;;;;2.00;2.00;;;;;21.50;55.20;98749.00;110153;1250;22046;-34
2023/10/27 04:33:49;;;;;;;;;2.00;2.00;;;;;21.57;54.99;98742.54;110159;1251;19693;-33
2023/10/27 04:36:17;;;;;;;;;2.00;2.00;;;;;21.57;54.92;98743.92;110161;1265;18747;-33
2023/10/27 04:38:44;;;;;;;;;2.00;2.00;;;;;21.61;55.06;98743.81;110166;1265;20733;-33
2023/10/27 04:41:12;;;;;;;;;5.00;5.00;;;;;21.64;54.90;98744.27;110172;1252;19556;-33
2023/10/27 04:43:39;;;;;;;;;2.00;2.00;;;;;21.67;54.76;98748.09;110166;1253;20691;-33
2023/10/27 04:46:08;;;;;;;;;2.00;2.00;;;;;21.71;54.87;98747.25;110145;1253;20802;-33
2023/10/27 04:48:35;;;;;;;;;2.00;2.00;;;;;21.73;54.78;98745.61;110144;1251;19667;-33
2023/10/27 04:51:04;;;;;;;;;4.00;4.00;;;;;21.72;55.07;98749.30;110168;1250;20095;-33
2023/10/27 04:53:31;;;;;;;;;9.00;9.00;;;;;21.74;55.16;98752.30;110150;1265;22768;-34
2023/10/27 04:55:58;;;;;;;;;5.00;5.00;;;;;21.82;55.83;98756.45;110113;1259;19589;-34
2023/10/27 04:58:26;;;;;;;;;14.00;14.00;;;;;21.93;55.34;98762.67;110128;1265;20020;-34
2023/10/27 05:00:53;;;;;;;;;9.00;9.00;;;;;22.23;54.41;98758.86;110141;1265;19418;-34
2023/10/27 05:03:21;;;;;;;;;7.00;7.00;;;;;22.40;53.92;98758.44;110125;1251;22337;-33
2023/10/27 05:05:48;;;;;;;;;7.00;7.00;;;;;22.35;54.28;98755.92;109978;1250;220503;-33
2023/10/27 05:08:16;;;;;;;;;7.00;7.00;;;;;22.31;54.38;98755.84;110129;1253;20816;-33
2023/10/27 05:10:43;;;;;;;;;7.00;7.00;;;;;22.11;54.59;98761.10;110129;1265;18344;-33
2023/10/27 05:13:11;;;;;;;;;5.00;5.00;;;;;21.99;55.24;98761.38;110165;1265;18595;-33
2023/10/27 05:15:39;;;;;;;;;4.00;4.00;;;;;21.95;55.35;98757.53;110122;1253;23259;-33
2023/10/27 05:18:06;;;;;;;;;5.00;5.00;;;;;21.90;55.73;98760.82;110159;1265;22689;-33
2023/10/27 05:20:34;;;;;;;;;5.00;5.00;;;;;21.86;55.52;98765.65;110164;1265;18856;-32
2023/10/27 05:23:01;;;;;;;;;2.00;2.00;;;;;21.82;55.87;98765.17;110153;1265;20874;-34
2023/10/27 05:25:28;;;;;;;;;4.00;4.00;;;;;21.81;56.13;98767.61;110120;1265;18447;-33
2023/10/27 05:27:56;;;;;;;;;4.00;4.00;;;;;21.75;56.24;98770.14;110150;1251;20279;-33
2023/10/27 05:30:23;;;;;;;;;4.00;4.00;;;;;21.75;56.38;98773.02;110152;1265;19348;-34
2023/10/27 05:32:51;;;;;;;;;2.00;2.00;;;;;21.75;55.99;98778.79;110114;1265;18542;-34
2023/10/27 05:35:18;;;;;;;;;4.00;4.00;;;;;21.73;56.29;98784.79;110039;1265;18652;-34
2023/10/27 05:37:45;;;;;;;;;4.00;4.00;;;;;21.70;56.33;98786.05;110078;1253;20754;-34
2023/10/27 05:40:14;;;;;;;;;2.00;2.00;;;;;21.69;56.05;98791.41;110039;1265;18390;-34
2023/10/27 05:42:42;;;;;;;;;4.00;2.00;;;;;21.68;56.29;98797.05;110032;1253;20022;-34
2023/10/27 05:45:11;;;;;;;;;2.00;2.00;;;;;21.71;56.28;98798.70;110151;1265;19348;-34
2023/10/27 05:47:39;;;;;;;;;2.00;2.00;;;;;21.72;56.30;98803.96;110118;1252;19619;-35
2023/10/27 05:50:07;;;;;;;;;5.00;4.00;;;;;21.70;56.08;98805.14;110146;1265;18806;-33
2023/10/27 05:52:34;;;;;;;;;2.00;2.00;;;;;21.68;56.22;98805.13;110137;1252;20837;-33
2023/10/27 05:55:02;;;;;;;;;2.00;2.00;;;;;21.73;56.32;98805.88;110175;1250;19571;-33
2023/10/27 05:57:31;;;;;;;;;4.00;4.00;;;;;21.71;56.06;98805.34;110136;1265;19991;-33
2023/10/27 05:59:59;;;;;;;;;4.00;4.00;;;;;21.70;55.91;98806.30;110139;1251;20804;-33
2023/10/27 06:02:26;;;;;;;;;8.00;7.50;;;;;21.68;54.74;98804.96;110134;1251;19685;-33
2023/10/27 06:04:54;;;;;;;;;8.00;8.00;;;;;21.65;54.74;98813.48;110128;1265;18639;-34
2023/10/27 06:07:21;;;;;;;;;9.00;7.50;;;;;21.62;54.71;98809.55;110098;1250;22281;-34
2023/10/27 06:09:49;;;;;;;;;7.00;7.00;;;;;21.56;54.76;98809.20;110149;1251;19579;-34
2023/10/27 06:12:16;;;;;;;;;8.50;5.00;;;;;21.55;54.17;98807.29;110115;1265;23142;-34
2023/10/27 06:14:45;;;;;;;;;8.00;8.00;;;;;21.51;54.07;98808.11;110138;1251;20840;-35
2023/10/27 06:17:12;;;;;;;;;5.00;5.00;;;;;21.50;53.60;98808.15;110183;1250;19674;-35
2023/10/27 06:19:40;;;;;;;;;5.00;5.00;;;;;21.46;53.90;98815.37;110108;1265;18758;-34
2023/10/27 06:22:09;;;;;;;;;4.50;4.50;;;;;21.41;53.52;98816.33;110158;1265;19371;-33
2023/10/27 06:24:36;;;;;;;;;7.00;6.00;;;;;21.38;53.03;98819.27;110167;1250;19614;-34
2023/10/27 06:27:05;;;;;;;;;9.00;7.00;;;;;21.35;52.45;98822.04;110133;1250;21166;-34
2023/10/27 06:29:33;;;;;;;;;7.00;7.00;;;;;21.34;52.32;98822.00;110046;1250;20742;-34
2023/10/27 06:32:01;;;;;;;;;8.50;8.00;;;;;21.32;51.75;98823.16;110124;1250;19628;-34
2023/10/27 06:34:28;;;;;;;;;7.00;7.00;;;;;21.31;51.44;98817.59;110120;1265;21053;-34
2023/10/27 06:36:56;;;;;;;;;9.50;8.00;;;;;21.29;51.20;98815.30;110129;1265;19541;-34
2023/10/27 06:39:24;;;;;;;;;9.50;7.50;;;;;21.29;50.62;98811.37;110155;1261;18684;-33
2023/10/27 06:41:51;;;;;;;;;10.00;8.00;;;;;21.27;50.61;98808.45;110145;1265;18656;-34
2023/10/27 06:44:19;;;;;;;;;7.00;7.00;;;;;21.27;50.52;98811.66;110142;1252;20775;-33
2023/10/27 06:46:46;;;;;;;;;9.00;8.00;;;;;21.28;50.14;98813.70;110124;1265;19540;-33
2023/10/27 06:49:13;;;;;;;;;9.00;8.00;;;;;21.37;49.86;98816.59;110080;1265;18587;-32
2023/10/27 06:51:41;;;;;;;;;10.00;7.50;;;;;21.41;49.73;98816.52;110028;1250;20751;-35
2023/10/27 06:54:10;;;;;;;;;6.33;6.33;;;;;21.40;49.69;98816.59;110003;1250;19792;-33
2023/10/27 06:56:37;;;;;;;;;5.00;5.00;;;;;21.39;49.91;98812.71;109999;1259;18543;-34
2023/10/27 06:59:05;;;;;;;;;13.00;8.00;;;;;21.42;49.57;98812.30;110123;1251;20857;-33
2023/10/27 07:01:32;;;;;;;;;8.00;7.00;;;;;21.32;49.50;98812.27;110125;1251;19564;-33
2023/10/27 07:03:59;;;;;;;;;10.00;8.00;;;;;21.42;49.66;98815.11;110133;1263;20198;-33
2023/10/27 07:06:27;;;;;;;;;10.00;8.00;;;;;21.45;50.38;98820.69;110131;1265;19578;-33
2023/10/27 07:08:54;;;;;;;;;8.00;8.00;;;;;21.45;52.06;98824.83;110130;1265;20000;-33
2023/10/27 07:11:22;;;;;;;;;10.00;8.00;;;;;21.45;52.16;98821.88;110147;1265;18651;-33
2023/10/27 07:13:49;;;;;;;;;7.33;7.00;;;;;21.48;52.15;98814.38;110213;1252;20774;-33
2023/10/27 07:16:17;;;;;;;;;10.33;10.00;;;;;21.45;51.66;98813.55;110139;1265;18747;-33
2023/10/27 07:18:44;;;;;;;;;7.00;7.00;;;;;21.46;51.47;98807.48;110136;1265;19130;-34
2023/10/27 07:21:12;;;;;;;;;8.00;7.33;;;;;21.47;51.91;98799.54;110144;1265;20460;-35
2023/10/27 07:23:39;;;;;;;;;8.00;7.00;;;;;21.48;52.39;98798.48;110109;1250;22737;-34
2023/10/27 07:26:07;;;;;;;;;8.00;7.00;;;;;21.47;52.31;98796.11;110121;1265;18675;-33
2023/10/27 07:28:34;;;;;;;;;7.00;7.00;;;;;21.47;52.17;98795.40;110031;1265;19387;-33
2023/10/27 07:31:03;;;;;;;;;7.00;5.00;;;;;21.41;52.16;98793.58;110148;1259;22782;-33
2023/10/27 07:33:30;;;;;;;;;4.00;4.00;;;;;21.41;52.17;98800.73;110154;1266;18752;-33
2023/10/27 07:35:58;;;;;;;;;5.00;5.00;;;;;21.45;52.26;98808.45;110110;1265;19417;-34
2023/10/27 07:38:26;;;;;;;;;4.00;4.00;;;;;21.48;52.32;98813.38;110138;1265;19788;-33
2023/10/27 07:40:54;;;;;;;;;5.00;5.00;;;;;21.47;52.87;98814.34;110138;1251;20183;-33
2023/10/27 07:43:21;;;;;;;;;7.00;7.00;;;;;21.45;52.84;98813.92;110177;1265;19250;-33
2023/10/27 07:45:49;;;;;;;;;4.33;4.33;;;;;21.44;53.13;98816.59;110109;1265;18519;-34
2023/10/27 07:48:16;;;;;;;;;5.00;4.00;;;;;21.42;53.05;98816.73;110025;1250;21978;-33
2023/10/27 07:50:43;;;;;;;;;7.00;4.00;;;;;21.42;52.96;98816.81;110048;1251;20957;-33
2023/10/27 07:53:11;;;;;;;;;7.00;7.00;;;;;21.45;52.63;98815.52;110043;1265;18949;-33
2023/10/27 07:55:39;;;;;;;;;7.00;5.00;;;;;21.41;52.32;98812.10;110126;1250;19900;-33
2023/10/27 07:58:06;;;;;;;;;7.00;5.00;;;;;21.35;51.69;98810.54;110156;1251;20847;-33
2023/10/27 08:00:34;;;;;;;;;4.00;4.00;;;;;21.31;51.92;98808.95;110153;1251;19644;-33
2023/10/27 08:03:01;;;;;;;;;5.00;5.00;;;;;21.23;51.41;98801.59;110162;1265;19979;-33
2023/10/27 08:05:29;;;;;;;;;10.00;8.00;;;;;21.20;51.06;98797.42;110173;1265;20944;-33
2023/10/27 08:07:57;;;;;;;;;10.00;7.00;;;;;21.16;50.30;98787.21;110187;1250;19610;-33
2023/10/27 08:10:24;;;;;;;;;7.00;7.00;;;;;21.13;49.61;98784.36;110129;1251;19982;-33
2023/10/27 08:12:52;;;;;;;;;5.00;5.00;;;;;21.11;49.15;98781.16;110128;1265;21447;-33
2023/10/27 08:15:19;;;;;;;;;8.00;7.00;;;;;21.11;49.20;98779.98;110144;1253;19574;-34
2023/10/27 08:17:47;;;;;;;;;8.67;8.67;;;;;21.08;48.54;98782.89;110142;1257;22751;-33
2023/10/27 08:20:14;;;;;;;;;11.00;10.00;;;;;21.08;48.24;98792.20;110144;1251;22007;-33
2023/10/27 08:22:41;;;;;;;;;9.00;8.00;;;;;21.07;48.22;98798.48;110149;1265;18432;-34
2023/10/27 08:25:09;;;;;;;;;12.00;11.00;;;;;21.04;47.83;98799.98;110157;1265;18697;-34
2023/10/27 08:27:36;;;;;;;;;8.67;8.00;;;;;21.02;47.49;98798.35;110131;1250;21012;-34
2023/10/27 08:30:04;;;;;;;;;10.00;9.00;;;;;21.01;47.46;98803.95;110143;1251;20021;-33
2023/10/27 08:32:31;;;;;;;;;12.00;10.00;;;;;21.00;47.18;98801.96;110155;1265;18719;-34
2023/10/27 08:34:58;;;;;;;;;11.00;10.00;;;;;20.99;46.93;98810.32;110137;1259;20800;-34
2023/10/27 08:37:26;;;;;;;;;8.00;8.00;;;;;20.99;46.64;98811.98;110148;1266;20191;-34
2023/10/27 08:39:53;;;;;;;;;9.33;7.00;;;;;20.99;46.68;98807.48;110131;1250;18664;-34
2023/10/27 08:42:21;;;;;;;;;14.00;11.50;;;;;20.98;46.47;98803.89;110177;1265;19388;-33
2023/10/27 08:44:48;;;;;;;;;10.00;9.00;;;;;20.97;46.37;98801.23;110140;1249;22111;-34
2023/10/27 08:47:15;;;;;;;;;12.00;12.00;;;;;20.96;46.14;98801.39;110160;1253;20129;-34
2023/10/27 08:49:43;;;;;;;;;10.00;10.00;;;;;20.97;45.90;98797.41;110158;1252;20788;-34
2023/10/27 08:52:10;;;;;;;;;8.00;8.00;;;;;20.96;45.83;98806.83;110151;1250;22119;-34
2023/10/27 08:54:38;;;;;;;;;14.00;11.50;;;;;20.95;45.77;98813.00;110145;1253;20069;-34
2023/10/27 08:57:05;;;;;;;;;14.00;11.00;;;;;20.94;45.67;98814.22;110151;1250;20841;-34
2023/10/27 08:59:33;;;;;;;;;12.00;11.00;;;;;20.93;45.62;98813.64;110132;1265;18863;-34
2023/10/27 09:02:01;;;;;;;;;10.00;10.00;;;;;20.94;45.38;98808.94;110138;1257;18663;-33
2023/10/27 09:04:29;;;;;;;;;10.00;8.00;;;;;20.93;45.62;98813.84;110097;1250;19719;-33
2023/10/27 09:06:56;;;;;;;;;11.00;10.00;;;;;20.91;45.64;98813.77;110108;1266;18542;-33
2023/10/27 09:09:25;;;;;;;;;10.00;8.00;;;;;20.90;45.38;98818.38;110102;1259;19595;-34
2023/10/27 09:11:52;;;;;;;;;11.00;10.00;;;;;20.88;45.25;98819.78;110135;1250;20696;-34
2023/10/27 09:14:20;;;;;;;;;14.00;13.50;;;;;20.89;44.96;98821.52;110164;1251;20012;-33
2023/10/27 09:16:47;;;;;;;;;11.00;11.00;;;;;20.95;45.00;98827.80;110163;1250;20105;-33
2023/10/27 09:19:14;;;;;;;;;10.33;10.00;;;;;21.00;44.96;98828.20;110112;1259;20824;-34
2023/10/27 09:21:44;;;;;;;;;11.00;10.50;;;;;21.14;45.07;98831.38;110024;1251;19970;-34
2023/10/27 09:24:12;;;;;;;;;10.00;10.00;;;;;21.16;45.45;98830.00;110145;1265;18629;-33
2023/10/27 09:26:39;;;;;;;;;11.67;10.00;;;;;21.14;45.68;98833.40;110125;1261;19358;-33
2023/10/27 09:29:07;;;;;;;;;11.00;10.00;;;;;21.09;46.12;98829.45;110105;1265;18532;-33
2023/10/27 09:31:34;;;;;;;;;11.00;8.00;;;;;21.01;45.98;98833.66;110116;1250;22292;-33
2023/10/27 09:34:02;;;;;;;;;8.00;7.33;;;;;21.05;46.46;98833.29;110113;1253;21084;-34
2023/10/27 09:36:29;;;;;;;;;5.00;5.00;;;;;21.06;46.77;98834.45;110127;1252;19971;-33
2023/10/27 09:38:57;;;;;;;;;8.00;7.00;;;;;21.09;46.70;98829.55;110139;1265;18643;-33
2023/10/27 09:41:24;;;;;;;;;7.50;7.50;;;;;21.16;46.97;98829.02;110110;1251;21969;-33
2023/10/27 09:43:51;;;;;;;;;8.00;8.00;;;;;21.18;47.28;98824.17;110135;1265;20420;-34
2023/10/27 09:46:19;;;;;;;;;6.00;6.00;;;;;21.18;47.43;98821.46;110119;1251;20136;-33
2023/10/27 09:48:46;;;;;;;;;7.00;7.00;;;;;21.16;47.57;98819.59;110110;1265;21088;-34
2023/10/27 09:51:16;;;;;;;;;5.00;5.00;;;;;21.17;47.98;98823.83;110126;1265;19567;-33
2023/10/27 09:53:43;;;;;;;;;7.00;7.00;;;;;21.18;48.21;98823.95;110107;1250;20171;-33
2023/10/27 09:56:11;;;;;;;;;5.00;4.00;;;;;21.22;48.26;98819.75;110103;1251;21918;-33
2023/10/27 09:58:38;;;;;;;;;5.00;5.00;;;;;21.25;48.72;98820.42;110070;1250;19632;-33
2023/10/27 10:01:06;;;;;;;;;4.00;4.00;;;;;21.21;49.35;98819.84;110088;1251;20118;-32
2023/10/27 10:03:33;;;;;;;;;4.00;4.00;;;;;21.24;49.58;98824.77;110129;1250;22214;-33
2023/10/27 10:06:01;;;;;;;;;4.50;4.00;;;;;21.25;50.18;98822.73;110123;1259;19916;-33
2023/10/27 10:08:28;;;;;;;;;4.00;4.00;;;;;21.27;50.12;98819.35;110067;1253;20128;-34
2023/10/27 10:10:55;;;;;;;;;4.00;4.00;;;;;21.30;50.24;98821.75;110136;1251;20602;-34
2023/10/27 10:13:24;;;;;;;;;4.00;4.00;;;;;21.30;50.13;98819.80;110099;1250;18980;-33
2023/10/27 10:15:53;;;;;;;;;4.00;4.00;;;;;21.39;50.04;98817.88;110103;1249;21131;-32
2023/10/27 10:18:21;;;;;;;;;5.00;5.00;;;;;21.38;50.48;98815.85;110092;1251;20972;-34
2023/10/27 10:20:48;;;;;;;;;5.00;4.50;;;;;21.32;51.07;98810.63;110072;1265;19559;-33
2023/10/27 10:23:16;;;;;;;;;4.00;4.00;;;;;21.32;51.24;98810.91;110044;1265;19732;-32
2023/10/27 10:25:43;;;;;;;;;4.00;4.00;;;;;21.33;51.41;98806.95;110042;1258;22646;-33
2023/10/27 10:28:12;;;;;;;;;5.00;5.00;;;;;21.34;51.29;98809.31;110067;1250;19792;-33
2023/10/27 10:30:39;;;;;;;;;4.00;4.00;;;;;21.32;51.41;98812.48;110160;1249;20095;-34
2023/10/27 10:33:06;;;;;;;;;2.00;2.00;;;;;21.35;51.43;98816.42;110129;1263;20789;-33
2023/10/27 10:35:37;;;;;;;;;4.33;2.67;;;;;21.37;51.18;98812.02;110095;1265;18329;-32
2023/10/27 10:38:05;;;;;;;;;2.00;2.00;;;;;21.34;51.35;98806.91;110109;1266;18713;-33
2023/10/27 10:40:33;;;;;;;;;2.00;2.00;;;;;21.32;51.50;98802.52;110092;1251;21093;-33
2023/10/27 10:43:01;;;;;;;;;2.00;2.00;;;;;21.32;51.85;98796.85;110117;1266;18569;-34
2023/10/27 10:45:28;;;;;;;;;2.00;2.00;;;;;21.36;51.44;98799.80;110083;1250;18762;-34
2023/10/27 10:47:56;;;;;;;;;2.00;2.00;;;;;21.37;51.56;98794.67;110031;1252;20923;-33
2023/10/27 10:50:24;;;;;;;;;4.00;4.00;;;;;21.37;51.75;98794.52;110098;1265;19583;-33
2023/10/27 10:52:51;;;;;;;;;2.00;2.00;;;;;21.39;52.00;98790.05;110114;1251;20123;-33
2023/10/27 10:55:19;;;;;;;;;2.00;2.00;;;;;21.43;51.87;98788.23;110122;1265;19413;-33
2023/10/27 10:57:46;;;;;;;;;2.00;2.00;;;;;21.42;51.68;98785.92;110093;1265;19568;-34
2023/10/27 11:00:18;;;;;;;;;2.00;2.00;;;;;21.42;52.12;98782.55;110165;1266;18681;-34
2023/10/27 11:02:46;;;;;;;;;2.00;2.00;;;;;21.42;51.99;98788.59;110135;1249;20850;-34
2023/10/27 11:05:13;;;;;;;;;2.00;2.00;;;;;21.44;51.98;98784.38;110129;1251;19930;-33
2023/10/27 11:07:40;;;;;;;;;2.00;2.00;;;;;21.43;51.74;98783.10;110108;1251;20121;-34
2023/10/27 11:10:08;;;;;;;;;2.00;2.00;;;;;21.37;51.55;98781.73;110069;1250;20809;-33
2023/10/27 11:12:35;;;;;;;;;5.00;5.00;;;;;21.45;51.32;98781.85;110089;1265;19781;-34
2023/10/27 11:15:03;;;;;;;;;4.00;2.00;;;;;21.41;51.25;98781.22;110110;1265;18641;-34
2023/10/27 11:17:30;;;;;;;;;3.00;3.00;;;;;21.45;51.14;98781.14;110108;1265;19568;-33
2023/10/27 11:19:59;;;;;;;;;4.00;4.00;;;;;21.44;51.64;98777.75;110116;1265;18500;-34
2023/10/27 11:22:27;;;;;;;;;4.00;4.00;;;;;21.42;51.35;98770.98;110138;1265;19989;-34
2023/10/27 11:24:55;;;;;;;;;5.00;2.00;;;;;21.42;51.56;98771.21;110102;1265;19234;-34